AirNav   Pilot Hours Calculator
 
 545 users online  

FD56 Inhome Medical Landing Heliport
Crescent City, Florida, USA

GOING TO CRESCENT CITY?


FAA INFORMATION EFFECTIVE 02 JANUARY 2020

Location

FAA Identifier: FD56
Lat/Long: 29-26-55.7000N 081-30-50.7800W
29-26.928333N 081-30.846333W
29.4488056,-81.5141056
(estimated)
Elevation: 55 ft. / 17 m (estimated)
Variation: 03W (1986)
From city: 1 mile S of CRESCENT CITY, FL
Time zone: UTC -5 (UTC -4 during Daylight Saving Time)
Zip code: 32112

Heliport Operations

Heliport use: Private use, MEDICAL.
Activation date: 03/1986
Control tower: no
ARTCC: JACKSONVILLE CENTER
FSS: GAINESVILLE FLIGHT SERVICE STATION
Attendance: MON-SAT 0600-1800
Wind indicator: lighted
Segmented circle: no

Heliport Communications

WX AWOS-3 at 28J (16 nm NW): 119.925 (386-312-2212)
WX AWOS-3 at FIN (16 nm E): 128.325 (386-437-7334)

Nearby radio navigation aids

VOR radial/distance  VOR name  Freq  Var
OMNr293/22.7ORMOND BEACH VORTAC112.6000E
SGJr203/31.9ST AUGUSTINE VOR/DME109.4006W

 
NDB name  Hdg/Dist  Freq  Var  ID
REYNOLDS173/32.033807WRYD .-. -.-- -..

Heliport Services

Runway Information

Helipad H1

Dimensions: 75 x 75 ft. / 23 x 23 m
Surface: asphalt
Latitude: 29-26.928333N
Longitude: 081-30.846333W
Elevation: 55.0 ft.
Traffic pattern: leftleft

Heliport Ownership and Management from official FAA records

Ownership: Privately-owned
Owner: THOMAS DRUG STORE, INC.
1125 N. SUMMIT STREET
CRESCENT CITY, FL 32112
Phone 386-698-3737
Manager: WARREN FLETCHER
1125 N. SUMMIT STREET
CRESCENT CITY, FL 32112
Phone 386-698-3737

Additional Remarks

FOR CD CTC DAYTONA APCH AT 386-226-3939.

Instrument Procedures

There are no published instrument procedures at FD56.

Some nearby airports with instrument procedures:

28J - Palatka Municipal Airport - Lt. Kay Larkin Field (16 nm NW)
KFIN - Flagler Executive Airport (16 nm E)
KOMN - Ormond Beach Municipal Airport (23 nm SE)
KDED - DeLand Municipal Airport-Sidney H Taylor Field (26 nm SE)
KDAB - Daytona Beach International Airport (29 nm SE)
 
Loc | Ops | Rwys | IFR | FBO | Links
Com | Nav | Svcs | Stats | Notes
Area around FD56 (Inhome Medical Landing Heliport)
 
Road maps at: MapQuest Bing Google
 
Aerial photo
No photo
 
Sectional chart

 
Airport distance calculator
Flying to Inhome Medical Landing Heliport? Find the distance to fly.

From to FD56

Sunrise and sunset
Times for 21-Jan-2020
 Local
(UTC-5)
 Zulu
(UTC)
Morning civil twilight06:5611:56
Sunrise07:2112:21
Sunset17:5422:54
Evening civil twilight18:1923:19

Current date and time
Zulu (UTC)  21-Jan-2020 11:07:23
Local (UTC-5)  21-Jan-2020 06:07:23
 
METAR
K28J 
16nm NW 
211055Z AUTO 34006KT 10SM BKN021 BKN028 00/M02 A3024 RMK AO2
KFIN 
16nm E 
211050Z 34005KT 10SM CLR 04/01 A3020
KOMN 
23nm SE 
202350Z 33010G16KT 7SM SCT024 09/09 A3021 RMK LAST
KDED 
26nm SE 
211055Z AUTO 34009KT 10SM CLR 05/01 A3018 RMK AO2
KDAB 
28nm SE 
211053Z 32010KT 10SM FEW025 04/02 A3018 RMK AO2 SLP219 T00440022
TAF
KDAB 
28nm SE 
210527Z 2106/2206 32008KT P6SM SCT025 FM211300 34014G22KT P6SM BKN035 FM211800 34018G27KT P6SM SCT035 FM220000 34012G20KT P6SM SCT035
KSGJ 
33nm N 
210636Z 2107/2206 34012KT P6SM FEW035 FM211500 35016G24KT P6SM SCT025
NOTAMs
Click for the latest NOTAMs
NOTAMs are issued by the DoD/FAA and will open in a separate window not controlled by AirNav.

 

 
 

Would you like to see your business listed on this page?

 If your business provides an interesting product or service to pilots, flight crews, aircraft, or users of the Inhome Medical Landing Heliport, you should consider listing it here.  To start the listing process, click on the button below
 
Add a business
 

Other Pages about Inhome Medical Landing Heliport

Update a link
 
Copyright © AirNav, LLC. All rights reserved. Privacy Policy  Contact